Time;durP1;ratioP1;P1;durP2;ratioP2;P2;SDS_P1;SDS_P2;PMS_P1;PMS_P2;Temp;Humidity;BMP_temperature;BMP_pressure;BME280_temperature;BME280_humidity;BME280_pressure;Samples;Min_cycle;Max_cycle;Signal;HPM_P1;HPM_P2
2022/05/09 00:02:01;;;;;;;9.93;8.23;;;14.30;83.50;;;;;;4964319;28;20477;-43
2022/05/09 00:04:28;;;;;;;13.43;8.27;;;14.30;83.60;;;;;;4981010;28;20849;-43
2022/05/09 00:06:55;;;;;;;8.40;7.53;;;14.30;83.60;;;;;;4979915;28;20531;-43
2022/05/09 00:09:22;;;;;;;14.00;9.40;;;14.30;83.80;;;;;;4980749;28;20539;-43
2022/05/09 00:11:49;;;;;;;11.97;8.93;;;14.30;84.00;;;;;;4965821;28;20468;-43
2022/05/09 00:14:16;;;;;;;9.83;8.37;;;14.30;84.10;;;;;;4981279;28;21133;-42
2022/05/09 00:16:43;;;;;;;11.00;8.27;;;14.20;84.00;;;;;;4983404;28;20467;-42
2022/05/09 00:19:11;;;;;;;11.37;8.43;;;14.20;84.00;;;;;;4981380;28;20812;-42
2022/05/09 00:21:40;;;;;;;11.70;8.23;;;14.20;83.90;;;;;;4980071;28;21006;-42
2022/05/09 00:24:14;;;;;;;9.40;7.43;;;14.20;84.00;;;;;;4981586;28;20473;-43
2022/05/09 00:26:41;;;;;;;9.60;7.60;;;14.10;83.60;;;;;;4965082;28;20468;-42
2022/05/09 00:29:10;;;;;;;9.87;8.17;;;14.10;83.80;;;;;;4958881;28;20894;-42
2022/05/09 00:31:39;;;;;;;9.03;8.13;;;14.10;83.80;;;;;;4981318;28;20488;-43
2022/05/09 00:34:07;;;;;;;10.00;7.90;;;14.10;83.80;;;;;;4983041;28;20541;-43
2022/05/09 00:36:34;;;;;;;9.30;8.40;;;14.10;83.60;;;;;;4980868;28;20937;-42
2022/05/09 00:39:01;;;;;;;9.53;7.80;;;14.00;83.60;;;;;;4982470;28;20476;-42
2022/05/09 00:41:34;;;;;;;11.30;7.90;;;14.00;83.70;;;;;;4980721;28;20540;-42
2022/05/09 00:44:05;;;;;;;9.13;7.47;;;14.00;83.70;;;;;;4977278;28;20465;-42
2022/05/09 00:46:32;;;;;;;10.57;8.90;;;13.90;83.70;;;;;;4976827;28;20475;-42
2022/05/09 00:49:25;;;;;;;8.57;7.67;;;13.90;83.80;;;;;;4978152;28;20476;-43
2022/05/09 00:51:52;;;;;;;9.60;7.90;;;13.90;83.90;;;;;;4964900;28;20472;-42
2022/05/09 00:54:19;;;;;;;9.53;8.57;;;13.90;84.00;;;;;;4959956;28;20469;-42
2022/05/09 00:57:11;;;;;;;9.87;7.70;;;13.90;84.00;;;;;;4978019;28;20928;-42
2022/05/09 00:59:39;;;;;;;12.63;8.33;;;13.90;84.20;;;;;;4979263;28;20985;-43
2022/05/09 01:02:07;;;;;;;9.20;7.93;;;13.90;83.90;;;;;;4980563;28;20479;-43
2022/05/09 01:04:42;;;;;;;15.60;7.20;;;13.80;84.10;;;;;;4980259;28;20508;-43
2022/05/09 01:07:09;;;;;;;10.43;8.70;;;13.80;84.20;;;;;;4980843;28;20530;-43
2022/05/09 01:09:36;;;;;;;9.90;8.07;;;13.80;84.20;;;;;;4981890;28;20505;-43
2022/05/09 01:12:03;;;;;;;9.93;8.70;;;13.80;84.40;;;;;;4980173;28;20467;-43
2022/05/09 01:14:32;;;;;;;11.90;8.50;;;13.80;84.40;;;;;;4974047;28;20485;-43
2022/05/09 01:17:01;;;;;;;10.27;8.73;;;13.80;84.40;;;;;;4979767;28;20472;-43
2022/05/09 01:19:28;;;;;;;9.60;8.53;;;13.70;84.40;;;;;;4980541;28;20973;-43
2022/05/09 01:21:55;;;;;;;9.20;7.50;;;13.70;84.60;;;;;;4962606;28;20468;-42
2022/05/09 01:24:23;;;;;;;9.13;8.00;;;13.80;84.60;;;;;;4971405;28;20982;-42
2022/05/09 01:26:51;;;;;;;8.83;8.00;;;13.80;84.40;;;;;;4964203;28;20746;-42
2022/05/09 01:29:30;;;;;;;8.60;7.63;;;13.70;84.40;;;;;;4961133;28;20474;-42
2022/05/09 01:31:58;;;;;;;10.07;9.03;;;13.70;84.40;;;;;;4976038;28;21391;-43
2022/05/09 01:34:27;;;;;;;9.13;7.87;;;13.70;84.60;;;;;;4982958;28;20456;-43
2022/05/09 01:37:03;;;;;;;10.93;8.93;;;13.70;84.40;;;;;;4957044;28;20466;-43
2022/05/09 01:39:31;;;;;;;10.33;9.23;;;13.70;84.40;;;;;;4976841;28;20561;-42
2022/05/09 01:42:04;;;;;;;9.10;8.20;;;13.60;84.40;;;;;;4978032;28;20474;-42
2022/05/09 01:44:31;;;;;;;10.53;8.90;;;13.60;84.40;;;;;;4982120;28;20473;-42
2022/05/09 01:49:46;;;;;;;16.20;10.23;;;13.60;84.60;;;;;;4979548;28;20487;-42
2022/05/09 01:52:16;;;;;;;12.10;9.80;;;13.50;84.60;;;;;;4980837;28;20487;-42
2022/05/09 01:54:43;;;;;;;11.00;9.53;;;13.50;84.60;;;;;;4961670;28;20469;-42
2022/05/09 01:57:11;;;;;;;10.20;8.93;;;13.50;84.70;;;;;;4975409;28;20469;-42
2022/05/09 01:59:39;;;;;;;10.70;8.77;;;13.50;84.70;;;;;;4979307;28;20469;-42
2022/05/09 02:02:16;;;;;;;11.50;8.40;;;13.50;84.70;;;;;;4979325;28;20470;-42
2022/05/09 02:04:43;;;;;;;10.50;8.20;;;13.50;84.80;;;;;;4964021;28;20476;-42
2022/05/09 02:07:13;;;;;;;9.90;8.90;;;13.50;84.90;;;;;;4981399;28;20847;-43
2022/05/09 02:09:45;;;;;;;8.40;7.47;;;13.50;85.00;;;;;;4967174;28;20516;-43
2022/05/09 02:12:13;;;;;;;9.27;7.57;;;13.50;85.00;;;;;;4978677;28;20496;-43
2022/05/09 02:14:43;;;;;;;11.57;9.30;;;13.50;85.00;;;;;;4974746;28;20540;-44
2022/05/09 02:17:11;;;;;;;9.67;8.73;;;13.50;85.00;;;;;;4975672;28;20459;-44
2022/05/09 02:19:40;;;;;;;11.30;9.40;;;13.50;85.00;;;;;;4981210;28;20498;-44
2022/05/09 02:22:08;;;;;;;12.00;8.67;;;13.40;84.80;;;;;;4960157;28;20471;-44
2022/05/09 02:24:36;;;;;;;11.93;9.00;;;13.40;84.80;;;;;;4981231;28;20539;-44
2022/05/09 02:27:03;;;;;;;10.80;9.17;;;13.40;84.90;;;;;;4980409;28;20464;-44
2022/05/09 02:29:31;;;;;;;10.30;9.30;;;13.40;85.00;;;;;;4978732;28;20623;-43
2022/05/09 02:31:59;;;;;;;11.50;8.83;;;13.40;85.00;;;;;;4981778;28;20485;-44
2022/05/09 02:34:26;;;;;;;10.40;9.30;;;13.40;84.90;;;;;;4973138;28;20523;-44
2022/05/09 02:36:52;;;;;;;10.37;8.10;;;13.40;84.90;;;;;;4966222;28;20468;-43
2022/05/09 02:39:19;;;;;;;10.30;9.23;;;13.30;85.20;;;;;;4991449;28;20489;-44
2022/05/09 02:41:46;;;;;;;9.67;8.77;;;13.30;85.00;;;;;;4984020;28;20465;-44
2022/05/09 02:44:13;;;;;;;13.10;9.67;;;13.30;85.00;;;;;;4978649;28;20476;-44
2022/05/09 02:46:42;;;;;;;11.97;8.67;;;13.30;85.20;;;;;;4982076;28;20560;-44
2022/05/09 02:49:09;;;;;;;12.90;10.43;;;13.30;85.20;;;;;;4986628;28;20474;-44
2022/05/09 02:51:37;;;;;;;10.77;8.57;;;13.30;85.40;;;;;;4987554;28;20490;-44
2022/05/09 02:54:04;;;;;;;12.17;9.50;;;13.30;85.40;;;;;;4977041;28;20469;-46
2022/05/09 02:56:31;;;;;;;9.63;8.37;;;13.30;85.40;;;;;;4985558;28;20573;-47
2022/05/09 02:58:58;;;;;;;10.00;8.80;;;13.30;85.40;;;;;;4987561;28;20557;-46
2022/05/09 03:01:24;;;;;;;15.33;9.63;;;13.20;85.40;;;;;;4979685;28;20479;-46
2022/05/09 03:06:36;;;;;;;11.93;10.17;;;13.30;85.50;;;;;;4987905;28;20477;-46
2022/05/09 03:09:03;;;;;;;12.10;9.60;;;13.30;85.20;;;;;;4989226;28;20460;-46
2022/05/09 03:11:30;;;;;;;11.37;9.30;;;13.30;85.20;;;;;;4985489;28;20488;-46
2022/05/09 03:13:57;;;;;;;11.27;10.17;;;13.30;85.20;;;;;;4974949;28;20461;-46
2022/05/09 03:16:24;;;;;;;10.60;9.13;;;13.20;85.20;;;;;;4988885;28;20878;-46
2022/05/09 03:18:51;;;;;;;12.20;9.40;;;13.20;85.20;;;;;;4979804;28;20484;-46
2022/05/09 03:21:18;;;;;;;10.70;9.53;;;13.20;85.00;;;;;;4984801;28;20464;-46
2022/05/09 03:23:45;;;;;;;10.33;9.23;;;13.20;85.00;;;;;;4966458;28;20833;-46
2022/05/09 03:26:13;;;;;;;10.90;8.23;;;13.10;85.00;;;;;;4971683;28;20468;-46
2022/05/09 03:28:40;;;;;;;12.80;9.50;;;13.10;85.20;;;;;;4981848;28;20837;-46
2022/05/09 03:31:07;;;;;;;9.60;8.70;;;13.10;85.20;;;;;;4987569;28;20504;-46
2022/05/09 03:33:33;;;;;;;10.40;9.33;;;13.10;85.30;;;;;;4974622;28;20518;-46
2022/05/09 03:36:01;;;;;;;10.50;9.40;;;13.10;85.30;;;;;;4984744;28;20474;-46
2022/05/09 03:38:28;;;;;;;10.77;9.27;;;13.10;85.20;;;;;;4984443;28;20464;-46
2022/05/09 03:40:55;;;;;;;9.63;8.63;;;13.10;85.30;;;;;;4985036;28;20465;-46
2022/05/09 03:43:22;;;;;;;10.37;8.97;;;13.10;85.20;;;;;;4975959;28;20467;-46
2022/05/09 03:45:50;;;;;;;11.90;10.43;;;13.00;85.10;;;;;;4965006;28;20469;-46
2022/05/09 03:48:17;;;;;;;10.17;9.20;;;13.00;85.00;;;;;;4978730;28;20464;-46
2022/05/09 03:50:44;;;;;;;13.13;9.17;;;13.00;85.00;;;;;;4971175;28;20504;-46
2022/05/09 03:53:11;;;;;;;10.80;8.93;;;13.00;85.10;;;;;;4972291;28;20466;-46
2022/05/09 03:55:37;;;;;;;11.60;9.17;;;13.00;85.00;;;;;;4982658;28;20469;-46
2022/05/09 03:58:05;;;;;;;10.30;9.00;;;12.90;85.00;;;;;;4962063;28;20464;-46
2022/05/09 04:00:35;;;;;;;9.87;8.87;;;12.90;85.00;;;;;;4980940;28;20476;-46
2022/05/09 04:03:03;;;;;;;14.07;9.90;;;12.90;85.10;;;;;;4964390;28;20468;-46
2022/05/09 04:05:31;;;;;;;11.50;9.97;;;12.90;85.10;;;;;;4979422;28;20467;-46
2022/05/09 04:08:00;;;;;;;10.57;9.07;;;12.90;85.00;;;;;;4981354;28;20468;-46
2022/05/09 04:10:31;;;;;;;10.10;9.10;;;12.90;85.00;;;;;;4964094;28;20492;-46
2022/05/09 04:12:59;;;;;;;10.47;9.40;;;12.90;85.00;;;;;;4961026;28;20464;-46
2022/05/09 04:18:12;;;;;;;11.73;10.23;;;12.90;85.10;;;;;;4981413;28;20465;-46
2022/05/09 04:20:39;;;;;;;10.57;9.47;;;12.80;85.10;;;;;;4981936;28;20469;-46
2022/05/09 04:23:06;;;;;;;11.60;9.30;;;12.90;85.30;;;;;;4982406;28;20832;-46
2022/05/09 04:25:33;;;;;;;11.50;9.17;;;12.90;85.10;;;;;;4977933;28;20580;-46
2022/05/09 04:28:02;;;;;;;15.27;9.97;;;12.90;85.10;;;;;;4979381;28;20488;-46
2022/05/09 04:30:31;;;;;;;11.37;8.47;;;12.90;85.20;;;;;;4972302;28;20489;-45
2022/05/09 04:32:58;;;;;;;10.33;9.33;;;12.90;85.20;;;;;;4980669;28;20464;-46
2022/05/09 04:35:25;;;;;;;14.90;9.63;;;12.80;85.30;;;;;;4979518;28;20465;-46
2022/05/09 04:37:53;;;;;;;13.97;10.67;;;12.90;85.40;;;;;;4980130;28;20468;-46
2022/05/09 04:40:30;;;;;;;12.90;9.40;;;12.90;85.50;;;;;;4981229;28;20468;-46
2022/05/09 04:43:00;;;;;;;12.30;10.07;;;12.90;85.60;;;;;;4981036;28;21043;-46
2022/05/09 04:45:29;;;;;;;14.43;11.73;;;12.90;85.60;;;;;;4979469;28;20469;-46
2022/05/09 04:47:56;;;;;;;11.10;10.00;;;12.90;85.80;;;;;;4977446;28;20468;-46
2022/05/09 04:50:25;;;;;;;11.77;10.20;;;12.90;85.80;;;;;;4958598;28;20839;-46
2022/05/09 04:52:52;;;;;;;13.63;10.17;;;12.90;85.80;;;;;;4960231;28;20469;-46
2022/05/09 04:55:19;;;;;;;12.43;10.73;;;13.00;85.70;;;;;;4976043;28;20571;-46
2022/05/09 04:57:49;;;;;;;12.23;10.93;;;13.00;85.60;;;;;;4977857;28;21002;-46
2022/05/09 05:00:20;;;;;;;12.10;10.90;;;13.00;85.70;;;;;;4976205;28;20492;-47
2022/05/09 05:02:46;;;;;;;12.50;11.20;;;13.00;85.70;;;;;;4967575;28;21043;-46
2022/05/09 05:05:13;;;;;;;10.53;9.47;;;13.00;85.90;;;;;;4973440;28;20527;-46
2022/05/09 05:07:40;;;;;;;15.80;10.73;;;13.10;86.00;;;;;;4979554;28;20463;-46
2022/05/09 05:10:08;;;;;;;11.57;10.40;;;13.10;86.00;;;;;;4956795;28;20464;-46
2022/05/09 05:12:35;;;;;;;12.67;9.33;;;13.20;85.90;;;;;;4977558;28;20467;-46
2022/05/09 05:15:02;;;;;;;13.40;10.87;;;13.20;86.00;;;;;;4982706;28;20835;-46
2022/05/09 05:17:29;;;;;;;11.80;10.30;;;13.20;86.10;;;;;;4977622;28;20469;-46
2022/05/09 05:19:56;;;;;;;11.43;10.00;;;13.20;86.10;;;;;;4980805;28;20839;-46
2022/05/09 05:22:23;;;;;;;13.17;10.20;;;13.30;86.20;;;;;;4968953;28;20800;-46
2022/05/09 05:24:53;;;;;;;12.40;10.07;;;13.30;86.30;;;;;;4980315;28;20509;-46
2022/05/09 05:27:21;;;;;;;10.83;9.73;;;13.30;86.50;;;;;;4978655;28;20522;-46
2022/05/09 05:29:49;;;;;;;11.57;10.23;;;13.40;86.60;;;;;;4977601;28;20554;-46
2022/05/09 05:32:17;;;;;;;12.93;10.63;;;13.40;86.60;;;;;;4962473;28;20503;-46
2022/05/09 05:34:44;;;;;;;11.60;10.10;;;13.50;86.60;;;;;;4965812;28;20464;-47
2022/05/09 05:37:11;;;;;;;13.53;11.30;;;13.50;86.70;;;;;;4975862;28;20464;-47
2022/05/09 05:39:40;;;;;;;12.80;10.30;;;13.60;86.80;;;;;;4980665;28;20472;-46
2022/05/09 05:42:08;;;;;;;11.77;10.53;;;13.70;86.50;;;;;;4974524;28;20982;-46
2022/05/09 05:44:37;;;;;;;12.73;11.37;;;13.80;86.50;;;;;;4980128;28;20845;-47
2022/05/09 05:47:06;;;;;;;11.97;10.77;;;13.80;86.70;;;;;;4979881;28;20843;-47
2022/05/09 05:49:33;;;;;;;11.80;9.67;;;13.90;86.50;;;;;;4971503;28;21180;-47
2022/05/09 05:52:03;;;;;;;12.50;11.20;;;14.00;86.50;;;;;;4967172;28;20480;-46
2022/05/09 05:54:31;;;;;;;17.57;11.57;;;14.00;86.40;;;;;;4984171;28;20461;-46
2022/05/09 05:56:58;;;;;;;11.90;10.70;;;14.10;86.00;;;;;;4979746;28;20472;-46
2022/05/09 05:59:25;;;;;;;14.10;10.10;;;14.20;85.90;;;;;;4983524;28;20470;-46
2022/05/09 06:01:53;;;;;;;13.13;9.80;;;14.30;85.20;;;;;;4977820;28;21024;-46
2022/05/09 06:04:21;;;;;;;12.43;9.30;;;14.40;82.60;;;;;;4975540;28;21006;-46
2022/05/09 06:06:48;;;;;;;11.23;9.20;;;14.50;82.70;;;;;;4962168;28;20465;-46
2022/05/09 06:09:15;;;;;;;14.07;7.77;;;14.60;81.30;;;;;;4974549;28;20465;-46
2022/05/09 06:11:47;;;;;;;9.60;8.60;;;14.70;81.20;;;;;;4977631;28;20496;-46
2022/05/09 06:14:14;;;;;;;14.73;8.60;;;14.80;80.30;;;;;;4966980;28;20465;-46
2022/05/09 06:16:43;;;;;;;10.87;8.43;;;14.90;79.80;;;;;;4980904;28;20469;-46
2022/05/09 06:19:11;;;;;;;12.57;7.90;;;15.00;79.00;;;;;;4979033;28;20468;-46
2022/05/09 06:21:37;;;;;;;9.20;7.23;;;15.00;78.60;;;;;;4979621;28;20559;-47
2022/05/09 06:24:06;;;;;;;10.77;6.30;;;15.10;77.10;;;;;;4977237;28;20465;-46
2022/05/09 06:26:34;;;;;;;6.40;5.80;;;15.30;76.90;;;;;;4979783;28;20472;-47
2022/05/09 06:29:06;;;;;;;13.90;7.07;;;15.40;76.70;;;;;;4979025;28;20816;-47
2022/05/09 06:31:34;;;;;;;13.40;6.90;;;15.50;76.20;;;;;;4976588;28;20592;-47
2022/05/09 06:34:02;;;;;;;7.97;6.30;;;15.60;75.10;;;;;;4978738;28;20832;-47
2022/05/09 06:36:35;;;;;;;7.73;6.70;;;15.70;75.30;;;;;;4968306;28;20470;-47
2022/05/09 06:39:03;;;;;;;13.10;6.60;;;15.90;75.30;;;;;;4979507;28;21008;-47
2022/05/09 06:41:30;;;;;;;11.53;6.67;;;16.00;74.70;;;;;;4978421;28;20492;-48
2022/05/09 06:43:57;;;;;;;9.00;6.90;;;16.10;75.20;;;;;;4963531;28;20469;-47
2022/05/09 06:46:24;;;;;;;8.73;6.10;;;16.20;73.30;;;;;;4975055;28;20599;-47
2022/05/09 06:48:51;;;;;;;12.70;6.50;;;16.30;72.10;;;;;;4979838;28;20470;-47
2022/05/09 06:51:18;;;;;;;7.43;5.50;;;16.40;72.00;;;;;;4954895;28;20486;-47
2022/05/09 06:53:45;;;;;;;6.83;5.60;;;16.50;72.50;;;;;;4973405;28;20465;-47
2022/05/09 06:56:12;;;;;;;9.33;6.27;;;16.60;72.00;;;;;;4979525;28;20464;-47
2022/05/09 06:58:39;;;;;;;9.57;5.80;;;16.80;72.20;;;;;;4977086;28;20476;-47
2022/05/09 07:01:17;;;;;;;10.93;5.57;;;16.90;72.10;;;;;;4977163;28;20933;-47
2022/05/09 07:03:44;;;;;;;6.57;5.20;;;17.10;72.10;;;;;;4949565;28;20505;-47
2022/05/09 07:06:11;;;;;;;8.50;5.37;;;17.20;70.70;;;;;;4977687;28;20497;-47
2022/05/09 07:08:39;;;;;;;8.10;5.27;;;17.40;70.70;;;;;;4977427;28;20466;-47
2022/05/09 07:11:06;;;;;;;10.07;4.80;;;17.50;69.90;;;;;;4978575;28;20495;-47
2022/05/09 07:13:39;;;;;;;8.90;5.20;;;17.70;69.40;;;;;;4974468;28;21031;-47
2022/05/09 07:16:08;;;;;;;8.03;5.20;;;17.80;67.70;;;;;;4976746;28;20833;-47
2022/05/09 07:18:36;;;;;;;6.57;5.00;;;17.90;66.50;;;;;;4980835;28;20475;-47
2022/05/09 07:21:03;;;;;;;6.83;4.90;;;18.00;66.70;;;;;;4979618;28;20475;-47
2022/05/09 07:23:30;;;;;;;5.73;5.23;;;18.20;65.10;;;;;;4981748;28;20572;-47
2022/05/09 07:25:57;;;;;;;5.10;4.23;;;18.30;65.70;;;;;;4966332;28;20485;-47
2022/05/09 07:28:24;;;;;;;7.77;5.90;;;18.40;65.20;;;;;;4983905;28;20462;-47
2022/05/09 07:30:51;;;;;;;4.90;3.73;;;18.60;65.10;;;;;;4979686;28;20863;-47
2022/05/09 07:33:19;;;;;;;6.00;5.10;;;18.70;65.90;;;;;;4984423;28;20608;-47
2022/05/09 07:35:46;;;;;;;4.93;4.33;;;18.90;65.40;;;;;;4983327;28;20464;-47
2022/05/09 07:38:13;;;;;;;8.20;4.97;;;19.10;62.40;;;;;;4985384;28;20560;-47
2022/05/09 07:40:42;;;;;;;5.57;4.00;;;19.20;61.90;;;;;;4982713;28;20457;-47
2022/05/09 07:43:15;;;;;;;5.93;4.67;;;19.30;62.00;;;;;;4982054;28;20474;-47
2022/05/09 07:45:45;;;;;;;5.40;4.20;;;19.50;60.60;;;;;;4968955;28;20489;-47
2022/05/09 07:48:13;;;;;;;8.13;4.10;;;19.60;59.00;;;;;;4982062;28;20506;-47
2022/05/09 07:50:40;;;;;;;5.80;4.50;;;19.60;58.90;;;;;;4982592;28;20560;-47
2022/05/09 07:53:13;;;;;;;7.10;3.53;;;19.70;59.50;;;;;;4985051;28;20501;-47
2022/05/09 07:55:42;;;;;;;5.47;3.57;;;19.70;58.80;;;;;;4979740;28;20570;-47
2022/05/09 07:58:09;;;;;;;4.23;3.83;;;19.90;59.10;;;;;;4980157;28;20473;-47
2022/05/09 08:00:37;;;;;;;7.70;3.87;;;20.00;59.60;;;;;;4977196;28;20759;-47
2022/05/09 08:03:05;;;;;;;5.27;4.20;;;20.10;58.90;;;;;;4980607;28;20472;-47
2022/05/09 08:05:32;;;;;;;6.60;4.30;;;20.30;58.20;;;;;;4982033;28;20873;-47
2022/05/09 08:07:59;;;;;;;7.30;4.03;;;20.40;58.10;;;;;;4981191;28;20959;-47
2022/05/09 08:10:26;;;;;;;10.70;4.57;;;20.50;58.60;;;;;;4983735;28;21009;-47
2022/05/09 08:12:53;;;;;;;5.90;4.80;;;20.60;57.90;;;;;;4988096;28;20493;-47
2022/05/09 08:15:21;;;;;;;4.50;4.10;;;20.70;57.70;;;;;;4966796;28;20457;-47
2022/05/09 08:17:49;;;;;;;7.67;5.20;;;20.90;60.50;;;;;;4980235;28;20543;-47
2022/05/09 08:20:17;;;;;;;7.40;4.80;;;21.00;58.70;;;;;;4971368;28;20474;-47
2022/05/09 08:22:45;;;;;;;4.63;4.20;;;21.10;58.20;;;;;;4979587;28;20475;-47
2022/05/09 08:25:14;;;;;;;5.60;4.93;;;21.30;58.10;;;;;;4984679;28;20477;-47
2022/05/09 08:27:42;;;;;;;6.03;4.53;;;21.40;57.40;;;;;;4981350;28;20458;-47
2022/05/09 08:30:09;;;;;;;6.60;4.37;;;21.60;56.60;;;;;;4964259;28;20464;-47
2022/05/09 08:32:42;;;;;;;7.57;4.93;;;21.70;57.70;;;;;;4982040;28;20501;-47
2022/05/09 08:35:09;;;;;;;5.60;4.60;;;21.80;55.10;;;;;;4973469;28;20469;-47
2022/05/09 08:37:36;;;;;;;7.50;4.67;;;21.90;54.70;;;;;;4983068;28;21292;-47
2022/05/09 08:40:04;;;;;;;7.23;4.10;;;21.90;53.90;;;;;;4970308;28;20458;-47
2022/05/09 08:42:43;;;;;;;8.10;5.17;;;22.00;54.10;;;;;;4980487;28;20563;-47
2022/05/09 08:45:13;;;;;;;9.03;5.23;;;22.00;53.90;;;;;;4980026;28;20458;-47
2022/05/09 08:48:14;;;;;;;6.70;4.13;;;22.10;54.20;;;;;;4982553;28;20501;-47
2022/05/09 08:50:41;;;;;;;4.60;3.90;;;22.30;54.20;;;;;;4964720;28;20568;-47
2022/05/09 08:53:23;;;;;;;7.40;4.10;;;22.50;54.70;;;;;;4979328;28;20830;-47
2022/05/09 08:55:55;;;;;;;5.17;4.50;;;22.50;52.00;;;;;;4976828;28;20981;-47
2022/05/09 08:58:37;;;;;;;4.27;3.87;;;22.70;53.20;;;;;;4975987;28;20468;-47
2022/05/09 09:01:17;;;;;;;6.50;4.40;;;22.90;53.90;;;;;;4973682;28;20467;-47
2022/05/09 09:03:58;;;;;;;6.10;4.70;;;23.10;54.50;;;;;;4973562;28;20480;-47
2022/05/09 09:06:58;;;;;;;5.33;3.90;;;23.20;52.80;;;;;;4976617;28;20527;-47
2022/05/09 09:09:40;;;;;;;6.97;4.53;;;23.40;52.30;;;;;;4981614;28;20551;-48
2022/05/09 09:12:33;;;;;;;4.60;3.83;;;23.50;51.30;;;;;;4982702;28;20506;-47
2022/05/09 09:15:08;;;;;;;4.40;4.00;;;23.70;51.20;;;;;;4955278;28;20465;-48
2022/05/09 09:17:53;;;;;;;6.60;4.73;;;23.90;51.40;;;;;;4974366;28;20469;-47
2022/05/09 09:20:29;;;;;;;4.70;4.30;;;24.10;51.40;;;;;;4980456;28;20472;-47
2022/05/09 09:23:20;;;;;;;4.20;3.80;;;24.20;50.60;;;;;;4976859;28;21015;-47
2022/05/09 09:26:11;;;;;;;7.43;4.23;;;24.30;49.50;;;;;;4980768;28;20460;-48
2022/05/09 09:28:49;;;;;;;11.27;4.37;;;24.60;49.50;;;;;;4976923;28;20466;-48
2022/05/09 09:31:32;;;;;;;5.50;4.30;;;24.90;49.40;;;;;;4982202;28;20476;-48
2022/05/09 09:34:06;;;;;;;6.30;4.50;;;25.00;47.40;;;;;;4967383;28;20942;-47
2022/05/09 09:36:43;;;;;;;6.93;4.13;;;25.20;47.70;;;;;;4975979;28;20467;-48
2022/05/09 09:39:19;;;;;;;8.30;4.50;;;25.30;48.10;;;;;;4966258;28;20556;-48
2022/05/09 09:41:46;;;;;;;6.33;4.33;;;25.60;47.10;;;;;;4977695;28;20523;-48
2022/05/09 09:44:15;;;;;;;10.37;5.00;;;25.80;47.50;;;;;;4963424;28;20458;-48
2022/05/09 09:47:02;;;;;;;5.90;4.67;;;25.90;47.20;;;;;;4978026;28;20563;-48
2022/05/09 09:49:31;;;;;;;7.17;4.50;;;26.00;46.60;;;;;;4971265;28;20469;-49
2022/05/09 09:51:58;;;;;;;5.67;5.03;;;26.20;47.10;;;;;;4978816;28;20832;-48
2022/05/09 09:54:33;;;;;;;5.77;4.57;;;26.40;46.70;;;;;;4978880;28;20461;-47
2022/05/09 09:57:21;;;;;;;6.83;4.20;;;26.50;46.50;;;;;;4977620;28;20468;-48
2022/05/09 09:59:48;;;;;;;5.20;4.70;;;26.60;45.60;;;;;;4980243;28;20468;-49
2022/05/09 10:02:30;;;;;;;5.03;4.00;;;26.70;45.90;;;;;;4977028;28;20564;-48
2022/05/09 10:05:09;;;;;;;10.33;4.70;;;26.90;46.50;;;;;;4977513;28;20950;-48
2022/05/09 10:07:38;;;;;;;5.30;4.63;;;27.00;46.20;;;;;;4980258;28;20469;-48
2022/05/09 10:10:17;;;;;;;5.10;4.40;;;27.00;45.50;;;;;;4975069;28;20824;-48
2022/05/09 10:12:55;;;;;;;7.30;5.23;;;26.90;45.40;;;;;;4979002;28;20232;-48
2022/05/09 10:15:34;;;;;;;6.60;4.50;;;26.80;44.90;;;;;;4981660;28;20666;-47
2022/05/09 10:18:23;;;;;;;5.87;4.00;;;26.80;44.90;;;;;;4960419;28;20816;-48
2022/05/09 10:24:47;;;;;;;5.33;3.80;;;26.90;45.80;;;;;;4978438;28;20208;-48
2022/05/09 10:26:56;;;;;;;5.67;5.17;;;26.70;45.40;;;;;;4978201;28;20494;-48
2022/05/09 10:29:24;;;;;;;6.70;5.10;;;26.50;45.60;;;;;;4976343;28;20465;-48
2022/05/09 10:32:00;;;;;;;6.60;4.57;;;26.30;46.10;;;;;;4978046;28;20829;-48
2022/05/09 10:34:38;;;;;;;5.67;5.10;;;26.00;46.60;;;;;;4976639;28;20587;-47
2022/05/09 10:37:14;;;;;;;4.70;4.30;;;26.00;47.50;;;;;;4980475;28;20463;-47
2022/05/09 10:39:52;;;;;;;5.53;4.20;;;25.90;47.60;;;;;;4978571;28;21049;-47
2022/05/09 10:42:34;;;;;;;4.90;4.40;;;25.60;47.70;;;;;;4973281;28;20449;-48
2022/05/09 10:45:16;;;;;;;5.43;4.80;;;25.30;48.10;;;;;;4975365;28;20491;-48
2022/05/09 10:47:49;;;;;;;7.50;5.27;;;25.10;47.90;;;;;;4979473;28;20468;-48
2022/05/09 10:50:21;;;;;;;6.13;5.50;;;25.10;48.10;;;;;;4974088;28;20464;-48
2022/05/09 10:53:10;;;;;;;6.10;4.70;;;25.10;47.50;;;;;;4978154;28;20492;-48
2022/05/09 10:55:44;;;;;;;7.03;4.80;;;25.00;47.90;;;;;;4961417;28;20819;-47
2022/05/09 10:58:37;;;;;;;7.20;4.90;;;25.00;49.40;;;;;;4981753;28;20961;-48
2022/05/09 11:01:18;;;;;;;5.40;4.60;;;24.90;49.80;;;;;;4962486;28;20858;-44
2022/05/09 11:03:46;;;;;;;6.03;4.63;;;24.80;49.40;;;;;;4982229;28;20471;-43
2022/05/09 11:06:40;;;;;;;6.57;5.07;;;24.60;49.40;;;;;;4982906;28;20452;-43
2022/05/09 11:09:25;;;;;;;4.77;4.23;;;24.40;49.60;;;;;;4976988;28;20556;-43
2022/05/09 11:11:57;;;;;;;5.93;5.20;;;24.40;50.00;;;;;;4961550;28;20472;-43
2022/05/09 11:14:47;;;;;;;5.83;5.33;;;24.30;50.20;;;;;;4978806;28;20463;-44
2022/05/09 11:17:51;;;;;;;6.60;5.50;;;24.10;48.80;;;;;;4972560;28;21311;-44
2022/05/09 11:20:27;;;;;;;6.70;5.50;;;23.90;49.50;;;;;;4980456;28;20555;-44
2022/05/09 11:23:15;;;;;;;5.80;5.27;;;23.90;49.20;;;;;;4979448;28;20479;-44
2022/05/09 11:26:07;;;;;;;5.97;4.97;;;23.90;51.20;;;;;;4972498;28;20462;-44
2022/05/09 11:28:55;;;;;;;7.23;5.23;;;23.80;50.30;;;;;;4982846;28;20463;-43
2022/05/09 11:31:32;;;;;;;5.03;4.53;;;23.60;49.60;;;;;;4983579;28;20480;-44
2022/05/09 11:34:34;;;;;;;7.87;4.53;;;23.50;49.80;;;;;;4986169;28;21144;-44
2022/05/09 11:37:09;;;;;;;11.10;5.53;;;23.50;50.30;;;;;;4956841;28;20819;-44
2022/05/09 11:39:48;;;;;;;5.57;5.07;;;23.50;50.70;;;;;;4980645;28;20476;-43
2022/05/09 11:45:47;;;;;;;5.77;5.23;;;23.50;49.60;;;;;;4980423;28;20475;-43
2022/05/09 11:48:53;;;;;;;5.97;5.47;;;23.50;49.80;;;;;;4981108;28;20881;-43
2022/05/09 11:51:58;;;;;;;7.50;5.60;;;23.50;50.00;;;;;;4980953;28;20863;-43
2022/05/09 11:54:32;;;;;;;4.93;4.40;;;23.50;50.60;;;;;;4980967;28;20637;-43
2022/05/09 11:57:10;;;;;;;6.03;4.97;;;23.50;50.70;;;;;;4978100;28;20463;-43
2022/05/09 11:59:47;;;;;;;7.87;5.43;;;23.50;50.50;;;;;;4978906;28;20591;-43
2022/05/09 12:02:14;;;;;;;6.77;5.80;;;23.50;50.50;;;;;;4980594;28;20990;-43
2022/05/09 12:04:47;;;;;;;6.37;5.00;;;23.60;49.70;;;;;;4959143;28;20464;-43
2022/05/09 12:07:23;;;;;;;7.37;4.70;;;23.50;49.20;;;;;;4971346;28;20476;-43
2022/05/09 12:10:28;;;;;;;5.20;4.70;;;23.40;49.10;;;;;;4970428;28;20559;-43
2022/05/09 12:13:00;;;;;;;5.17;4.67;;;23.40;49.50;;;;;;4973025;28;20494;-43
2022/05/09 12:15:34;;;;;;;7.20;6.40;;;23.40;48.80;;;;;;4979846;28;20544;-44
2022/05/09 12:18:07;;;;;;;6.63;5.40;;;23.50;49.80;;;;;;4980024;28;20462;-43
2022/05/09 12:20:36;;;;;;;6.00;5.37;;;23.50;51.00;;;;;;4959887;28;20483;-43
2022/05/09 12:23:12;;;;;;;8.40;5.23;;;23.50;51.80;;;;;;4974015;28;21551;-44
2022/05/09 12:25:48;;;;;;;5.80;4.60;;;23.50;51.40;;;;;;4977481;28;20568;-43
2022/05/09 12:28:18;;;;;;;5.70;5.17;;;23.50;50.20;;;;;;4977550;28;20468;-44
2022/05/09 12:31:04;;;;;;;8.53;5.67;;;23.50;50.30;;;;;;4973801;28;20539;-43
2022/05/09 12:33:36;;;;;;;7.20;5.50;;;23.50;50.10;;;;;;4978606;28;20489;-44
2022/05/09 12:36:06;;;;;;;5.90;5.40;;;23.50;49.70;;;;;;4983148;28;20958;-43
2022/05/09 12:38:37;;;;;;;5.67;5.07;;;23.50;49.50;;;;;;4981080;28;20552;-44
2022/05/09 12:41:08;;;;;;;8.60;4.47;;;23.60;50.80;;;;;;4966337;28;20555;-44
2022/05/09 12:43:37;;;;;;;5.87;5.27;;;23.60;50.10;;;;;;4978841;28;20548;-43
2022/05/09 12:46:07;;;;;;;5.03;4.53;;;23.60;48.80;;;;;;4961279;28;20466;-43
2022/05/09 12:48:39;;;;;;;5.00;4.40;;;23.60;48.90;;;;;;4977897;28;20468;-44
2022/05/09 12:51:10;;;;;;;5.87;5.03;;;23.70;50.10;;;;;;4979175;28;20543;-44
2022/05/09 12:53:38;;;;;;;5.93;3.77;;;23.70;49.40;;;;;;4983513;28;20580;-43
2022/05/09 12:56:18;;;;;;;6.43;4.90;;;23.70;47.70;;;;;;4965379;28;20978;-43
2022/05/09 12:58:48;;;;;;;15.60;5.60;;;23.70;47.90;;;;;;4958169;28;20472;-44
2022/05/09 13:01:22;;;;;;;17.90;6.60;;;23.80;48.20;;;;;;4972026;28;20450;-46
2022/05/09 13:04:28;;;;;;;8.40;4.90;;;23.90;49.70;;;;;;4986899;28;20830;-46
2022/05/09 13:06:59;;;;;;;5.17;4.50;;;23.90;48.60;;;;;;4986306;28;20551;-45
2022/05/09 13:09:30;;;;;;;4.83;4.43;;;23.90;48.80;;;;;;4982943;28;20456;-45
2022/05/09 13:12:29;;;;;;;4.90;4.40;;;23.90;48.20;;;;;;4979436;28;20497;-46
2022/05/09 13:15:04;;;;;;;6.53;4.53;;;23.90;48.10;;;;;;4981767;28;20838;-46
2022/05/09 13:17:37;;;;;;;5.07;4.13;;;24.00;47.00;;;;;;4966870;28;20448;-46
2022/05/09 13:20:08;;;;;;;9.07;5.10;;;24.00;46.80;;;;;;4981347;28;20546;-45